Time;durP1;ratioP1;P1;durP2;ratioP2;P2;SDS_P1;SDS_P2;PMS_P1;PMS_P2;Temp;Humidity;BMP_temperature;BMP_pressure;BME280_temperature;BME280_humidity;BME280_pressure;Samples;Min_cycle;Max_cycle;Signal;HPM_P1;HPM_P2
2021/12/12 00:01:44;;;;;;;15.33;14.73;;;19.10;58.10;;;;;;5054150;28;20483;-52
2021/12/12 00:04:16;;;;;;;13.63;13.23;;;19.10;58.20;;;;;;5054181;28;20468;-49
2021/12/12 00:06:49;;;;;;;14.80;14.30;;;19.00;58.30;;;;;;5054001;28;20455;-50
2021/12/12 00:09:19;;;;;;;14.90;14.30;;;18.90;58.50;;;;;;5054226;28;20440;-48
2021/12/12 00:11:47;;;;;;;15.33;14.83;;;18.90;58.80;;;;;;5054013;28;20945;-49
2021/12/12 00:14:16;;;;;;;14.63;14.13;;;18.90;59.00;;;;;;5054126;28;20468;-49
2021/12/12 00:16:44;;;;;;;14.77;14.27;;;18.80;59.30;;;;;;5054128;28;20448;-49
2021/12/12 00:19:10;;;;;;;14.73;14.13;;;18.80;59.50;;;;;;5053737;28;20444;-50
2021/12/12 00:21:40;;;;;;;14.70;14.13;;;18.80;59.50;;;;;;5053705;28;20480;-49
2021/12/12 00:24:11;;;;;;;15.17;14.53;;;18.80;59.60;;;;;;5053810;28;20464;-50
2021/12/12 00:26:38;;;;;;;15.10;14.40;;;18.80;59.70;;;;;;5053960;28;20451;-50
2021/12/12 00:29:06;;;;;;;15.20;14.70;;;18.70;59.80;;;;;;5053855;28;20483;-49
2021/12/12 00:31:33;;;;;;;14.40;13.90;;;18.70;59.90;;;;;;5053370;28;20813;-49
2021/12/12 00:34:02;;;;;;;14.10;13.60;;;18.70;59.90;;;;;;5053595;28;20468;-49
2021/12/12 00:36:29;;;;;;;14.60;14.10;;;18.70;60.30;;;;;;5052868;28;20452;-49
2021/12/12 00:38:59;;;;;;;14.80;14.27;;;18.70;60.50;;;;;;5053740;28;20452;-49
2021/12/12 00:41:32;;;;;;;15.40;14.53;;;18.70;60.60;;;;;;5053519;28;20526;-52
2021/12/12 00:44:02;;;;;;;14.10;13.70;;;18.60;60.80;;;;;;5053211;28;20468;-48
2021/12/12 00:46:29;;;;;;;15.37;14.77;;;18.70;61.10;;;;;;5053403;28;20463;-49
2021/12/12 00:48:56;;;;;;;15.87;15.37;;;18.70;62.00;;;;;;5053470;28;20448;-49
2021/12/12 00:51:30;;;;;;;14.93;14.43;;;18.60;61.00;;;;;;5053468;28;20494;-48
2021/12/12 00:53:57;;;;;;;15.20;14.70;;;18.60;61.30;;;;;;5053342;28;20468;-49
2021/12/12 00:56:24;;;;;;;15.20;14.60;;;18.60;61.50;;;;;;5052518;28;20455;-49
2021/12/12 00:58:52;;;;;;;14.27;13.87;;;18.60;61.60;;;;;;5053313;28;20460;-48
2021/12/12 01:01:24;;;;;;;14.67;14.17;;;18.50;61.50;;;;;;5053139;28;20890;-49
2021/12/12 01:03:54;;;;;;;14.90;14.40;;;18.50;62.10;;;;;;5052884;28;20985;-49
2021/12/12 01:06:24;;;;;;;15.23;14.70;;;18.60;62.50;;;;;;5052876;28;20447;-49
2021/12/12 01:08:53;;;;;;;14.30;13.70;;;18.50;62.50;;;;;;5033206;28;20440;-51
2021/12/12 01:11:23;;;;;;;14.80;14.30;;;18.50;62.90;;;;;;5033128;28;20440;-49
2021/12/12 01:13:52;;;;;;;14.30;13.80;;;18.50;63.00;;;;;;5032819;28;20869;-48
2021/12/12 01:16:25;;;;;;;14.03;13.63;;;18.50;63.30;;;;;;5032970;28;20961;-49
2021/12/12 01:19:01;;;;;;;14.90;14.40;;;18.50;63.40;;;;;;5036139;28;20445;-48
2021/12/12 01:21:32;;;;;;;14.93;14.13;;;18.50;63.40;;;;;;5052070;28;20475;-48
2021/12/12 01:24:03;;;;;;;14.23;13.83;;;18.50;63.70;;;;;;5052686;28;20464;-51
2021/12/12 01:26:31;;;;;;;14.90;14.27;;;18.40;63.90;;;;;;5052796;28;20444;-49
2021/12/12 01:29:01;;;;;;;14.97;14.47;;;18.40;64.30;;;;;;5052707;28;20456;-48
2021/12/12 01:31:33;;;;;;;14.87;14.10;;;18.40;64.50;;;;;;5052311;28;20455;-48
2021/12/12 01:34:10;;;;;;;14.57;14.10;;;18.40;64.70;;;;;;5052445;28;20831;-50
2021/12/12 01:36:49;;;;;;;14.50;14.00;;;18.30;64.80;;;;;;5052657;28;20506;-48
2021/12/12 01:39:21;;;;;;;14.70;14.20;;;18.30;65.00;;;;;;5052529;28;20521;-49
2021/12/12 01:41:54;;;;;;;14.90;14.40;;;18.30;65.00;;;;;;5052190;28;21004;-49
2021/12/12 01:44:26;;;;;;;14.43;13.93;;;18.30;65.10;;;;;;5051907;28;21015;-48
2021/12/12 01:47:01;;;;;;;14.87;14.37;;;18.30;65.30;;;;;;5052316;28;20444;-49
2021/12/12 01:49:30;;;;;;;14.97;14.47;;;18.30;65.50;;;;;;5052408;28;20440;-48
2021/12/12 01:51:57;;;;;;;15.07;14.47;;;18.30;65.70;;;;;;5052195;28;20444;-48
2021/12/12 01:54:29;;;;;;;14.20;13.77;;;18.30;65.90;;;;;;5051736;28;20468;-50
2021/12/12 01:57:00;;;;;;;15.00;14.50;;;18.30;66.10;;;;;;5052112;28;20449;-50
2021/12/12 01:59:32;;;;;;;15.70;15.10;;;18.30;66.40;;;;;;5052230;28;20902;-48
2021/12/12 02:02:02;;;;;;;14.17;13.60;;;18.30;66.70;;;;;;5051821;28;20502;-48
2021/12/12 02:04:33;;;;;;;14.20;13.70;;;18.30;66.80;;;;;;5051904;28;20469;-48
2021/12/12 02:07:01;;;;;;;15.00;14.50;;;18.20;66.70;;;;;;5051858;28;20952;-50
2021/12/12 02:09:29;;;;;;;15.10;14.50;;;18.20;66.80;;;;;;5051944;28;20440;-48
2021/12/12 02:11:58;;;;;;;14.47;13.97;;;18.20;67.00;;;;;;5051802;28;20464;-48
2021/12/12 02:14:27;;;;;;;13.80;13.30;;;18.30;67.10;;;;;;5051523;28;20464;-48
2021/12/12 02:17:01;;;;;;;14.50;14.00;;;18.20;67.00;;;;;;5051881;28;21012;-48
2021/12/12 02:19:35;;;;;;;14.20;13.80;;;18.20;67.00;;;;;;5051874;28;20444;-48
2021/12/12 02:22:16;;;;;;;14.90;14.40;;;18.20;67.00;;;;;;5051457;28;20480;-48
2021/12/12 02:35:46;;;;;;;15.00;14.50;;;18.10;68.60;;;;;;5051740;28;20470;-49
2021/12/12 02:38:17;;;;;;;15.00;14.50;;;18.10;68.80;;;;;;5051344;28;20449;-51
2021/12/12 02:40:48;;;;;;;15.00;14.43;;;18.10;68.80;;;;;;5051531;28;20440;-48
2021/12/12 02:43:19;;;;;;;14.47;13.97;;;18.10;68.60;;;;;;5051087;28;20487;-53
2021/12/12 02:45:46;;;;;;;14.83;14.33;;;18.10;68.70;;;;;;5051478;28;20447;-52
2021/12/12 02:48:18;;;;;;;13.67;13.27;;;18.10;68.70;;;;;;5051151;28;20471;-52
2021/12/12 02:50:51;;;;;;;14.80;14.30;;;18.10;68.90;;;;;;5051433;28;20547;-55
2021/12/12 02:53:23;;;;;;;14.63;14.13;;;18.10;69.40;;;;;;5051084;28;20467;-53
2021/12/12 02:55:56;;;;;;;14.67;14.17;;;18.10;69.40;;;;;;5051398;28;20448;-54
2021/12/12 02:58:26;;;;;;;14.07;13.57;;;18.20;69.50;;;;;;5051433;28;20444;-54
2021/12/12 03:00:59;;;;;;;14.47;13.90;;;18.10;69.40;;;;;;5055166;28;20448;-55
2021/12/12 03:03:28;;;;;;;14.40;13.90;;;18.10;69.60;;;;;;5054816;28;20483;-54
2021/12/12 03:05:57;;;;;;;14.40;14.00;;;18.10;69.70;;;;;;5055412;28;20505;-49
2021/12/12 03:08:25;;;;;;;14.07;13.60;;;18.10;69.80;;;;;;5055185;28;20501;-51
2021/12/12 03:10:56;;;;;;;14.73;14.33;;;18.00;69.90;;;;;;5055303;28;20444;-50
2021/12/12 03:13:24;;;;;;;14.87;14.37;;;18.00;70.20;;;;;;5054694;28;20464;-51
2021/12/12 03:15:52;;;;;;;14.03;13.63;;;18.00;70.30;;;;;;5055279;28;20444;-51
2021/12/12 03:18:22;;;;;;;14.10;13.60;;;18.00;70.30;;;;;;5055069;28;20458;-49
2021/12/12 03:20:54;;;;;;;14.43;13.93;;;18.00;70.80;;;;;;5055227;28;20448;-50
2021/12/12 03:23:23;;;;;;;14.00;13.60;;;18.00;70.80;;;;;;5054630;28;20490;-52
2021/12/12 03:25:55;;;;;;;14.43;13.93;;;18.00;70.90;;;;;;5054656;28;20452;-48
2021/12/12 03:28:26;;;;;;;13.90;13.50;;;18.00;71.00;;;;;;5054963;28;20448;-49
2021/12/12 03:30:55;;;;;;;14.20;13.80;;;18.00;71.10;;;;;;5054982;28;20440;-49
2021/12/12 03:33:23;;;;;;;14.43;13.93;;;18.00;71.30;;;;;;5054599;28;20459;-49
2021/12/12 03:35:52;;;;;;;14.67;14.23;;;17.90;71.30;;;;;;5054503;28;20452;-51
2021/12/12 03:38:20;;;;;;;14.17;13.67;;;18.00;71.60;;;;;;5054618;28;20506;-48
2021/12/12 03:40:47;;;;;;;14.50;14.00;;;17.90;71.70;;;;;;5054709;28;20444;-49
2021/12/12 03:43:15;;;;;;;14.43;13.97;;;17.90;71.60;;;;;;5054266;28;20488;-50
2021/12/12 03:45:43;;;;;;;14.37;13.90;;;17.90;71.80;;;;;;5054782;28;20801;-49
2021/12/12 03:48:18;;;;;;;13.97;13.57;;;17.90;71.90;;;;;;5054312;28;20972;-49
2021/12/12 03:50:47;;;;;;;14.00;13.60;;;17.90;71.60;;;;;;5054532;28;20454;-48
2021/12/12 03:53:15;;;;;;;14.90;14.40;;;18.00;71.80;;;;;;5054349;28;20451;-49
2021/12/12 03:55:44;;;;;;;14.87;14.37;;;18.10;72.00;;;;;;5054527;28;20448;-49
2021/12/12 03:58:12;;;;;;;14.20;13.70;;;18.20;71.60;;;;;;5054513;28;20444;-50
2021/12/12 04:00:43;;;;;;;14.50;14.10;;;18.20;71.40;;;;;;5054167;28;20440;-50
2021/12/12 04:03:11;;;;;;;14.70;14.20;;;18.20;71.00;;;;;;5053997;28;20502;-50
2021/12/12 04:05:38;;;;;;;13.60;13.20;;;18.30;70.90;;;;;;5054165;28;20451;-49
2021/12/12 04:08:06;;;;;;;14.30;13.90;;;18.30;70.80;;;;;;5054027;28;20448;-49
2021/12/12 04:10:33;;;;;;;15.20;14.70;;;18.30;70.80;;;;;;5052991;28;20444;-48
2021/12/12 04:13:00;;;;;;;14.40;13.90;;;18.30;70.90;;;;;;5053859;28;20680;-50
2021/12/12 04:15:27;;;;;;;14.73;14.23;;;18.20;71.10;;;;;;5054075;28;20440;-48
2021/12/12 04:17:55;;;;;;;14.47;14.07;;;18.20;71.20;;;;;;5054145;28;20451;-49
2021/12/12 04:20:26;;;;;;;15.40;14.80;;;18.20;71.60;;;;;;5054090;28;20452;-49
2021/12/12 04:22:53;;;;;;;14.73;14.33;;;18.30;71.60;;;;;;5053815;28;20487;-48
2021/12/12 04:25:20;;;;;;;15.10;14.60;;;18.30;71.60;;;;;;5053620;28;20479;-49
2021/12/12 04:27:47;;;;;;;15.13;14.53;;;18.30;71.40;;;;;;5053994;28;20448;-49
2021/12/12 04:30:15;;;;;;;14.30;13.90;;;18.30;71.40;;;;;;5053930;28;20448;-49
2021/12/12 04:32:44;;;;;;;14.30;13.80;;;18.30;71.30;;;;;;5053530;28;20444;-49
2021/12/12 04:35:15;;;;;;;14.73;14.20;;;18.30;71.40;;;;;;5053710;28;20883;-49
2021/12/12 04:37:45;;;;;;;14.40;13.90;;;18.30;71.60;;;;;;5053716;28;20953;-49
2021/12/12 04:40:16;;;;;;;14.63;14.13;;;18.20;72.20;;;;;;5053671;28;20483;-49
2021/12/12 04:42:44;;;;;;;14.93;14.43;;;18.20;72.10;;;;;;5053349;28;20522;-49
2021/12/12 04:45:23;;;;;;;13.83;13.37;;;18.20;72.40;;;;;;5053400;28;20988;-49
2021/12/12 04:50:53;;;;;;;13.73;13.33;;;18.20;72.20;;;;;;5053573;28;20419;-49
2021/12/12 04:53:26;;;;;;;14.37;13.87;;;18.30;72.30;;;;;;5053218;28;20479;-49
2021/12/12 04:55:59;;;;;;;14.37;13.87;;;18.30;72.30;;;;;;5053356;28;20451;-50
2021/12/12 04:58:35;;;;;;;14.10;13.70;;;18.30;72.30;;;;;;5053408;28;20448;-49
2021/12/12 05:01:08;;;;;;;15.20;14.60;;;18.20;72.40;;;;;;5053061;28;20456;-49
2021/12/12 05:03:42;;;;;;;14.57;13.80;;;18.20;72.70;;;;;;5052936;28;20484;-49
2021/12/12 05:06:17;;;;;;;15.10;14.60;;;18.10;73.10;;;;;;5053322;28;20480;-49
2021/12/12 05:08:49;;;;;;;14.43;13.93;;;18.10;73.30;;;;;;5053141;28;20778;-51
2021/12/12 05:11:24;;;;;;;14.70;14.30;;;18.20;73.50;;;;;;5053152;28;20456;-48
2021/12/12 05:13:53;;;;;;;14.97;14.37;;;18.10;73.60;;;;;;5052555;28;20459;-48
2021/12/12 05:16:24;;;;;;;14.53;14.03;;;18.10;73.50;;;;;;5052926;28;20448;-51
2021/12/12 05:19:01;;;;;;;14.30;13.90;;;18.10;73.90;;;;;;5052813;28;20955;-49
2021/12/12 05:21:32;;;;;;;14.13;13.73;;;18.10;74.00;;;;;;5052467;28;20450;-51
2021/12/12 05:24:02;;;;;;;15.10;14.60;;;18.10;74.30;;;;;;5052685;28;20487;-49
2021/12/12 05:26:34;;;;;;;15.13;14.63;;;18.10;74.10;;;;;;5052507;28;20459;-49
2021/12/12 05:29:03;;;;;;;15.53;15.03;;;18.10;74.20;;;;;;5052832;28;20459;-50
2021/12/12 05:31:32;;;;;;;15.13;14.63;;;18.10;74.10;;;;;;5052692;28;20459;-53
2021/12/12 05:34:00;;;;;;;14.83;14.33;;;18.10;74.30;;;;;;5052516;28;20641;-53
2021/12/12 05:36:29;;;;;;;14.90;14.30;;;18.20;74.20;;;;;;5052788;28;20639;-55
2021/12/12 05:38:57;;;;;;;14.63;14.23;;;18.10;74.40;;;;;;5052651;28;20455;-56
2021/12/12 05:41:25;;;;;;;15.50;14.90;;;18.00;74.90;;;;;;5052574;28;20452;-56
2021/12/12 05:43:55;;;;;;;15.60;15.10;;;18.00;75.20;;;;;;5075987;22;20492;-51
2021/12/12 05:46:23;;;;;;;14.77;14.27;;;18.10;75.10;;;;;;5052228;28;20436;-49
2021/12/12 05:48:51;;;;;;;14.57;13.97;;;18.10;75.10;;;;;;5051846;28;20451;-51
2021/12/12 05:51:19;;;;;;;14.63;14.23;;;18.10;75.80;;;;;;5052267;28;20444;-49
2021/12/12 05:53:50;;;;;;;14.07;13.67;;;18.90;75.60;;;;;;5052043;28;20476;-52
2021/12/12 05:56:17;;;;;;;14.47;13.97;;;19.90;70.70;;;;;;5052352;28;20811;-53
2021/12/12 05:58:45;;;;;;;14.37;13.87;;;20.40;66.20;;;;;;5052274;28;20476;-53
2021/12/12 06:01:12;;;;;;;15.07;14.47;;;20.60;63.90;;;;;;5052188;28;20448;-49
2021/12/12 06:03:42;;;;;;;15.20;14.70;;;20.70;62.60;;;;;;5052002;28;20487;-54
2021/12/12 06:06:13;;;;;;;14.10;13.70;;;20.80;61.30;;;;;;5052627;28;20448;-57
2021/12/12 06:08:41;;;;;;;14.80;14.30;;;21.00;60.00;;;;;;5052194;28;20455;-55
2021/12/12 06:11:10;;;;;;;15.73;15.23;;;21.00;59.50;;;;;;5052208;28;20444;-49
2021/12/12 06:13:39;;;;;;;15.23;14.73;;;21.10;59.10;;;;;;5051731;28;20464;-51
2021/12/12 06:16:07;;;;;;;14.50;13.73;;;21.10;58.60;;;;;;5051999;28;20452;-50
2021/12/12 06:18:36;;;;;;;15.33;14.77;;;21.10;58.30;;;;;;5052043;28;20452;-50
2021/12/12 06:21:03;;;;;;;14.50;14.10;;;21.20;57.90;;;;;;5052274;28;20490;-51
2021/12/12 06:23:30;;;;;;;15.00;14.50;;;21.20;57.30;;;;;;5051600;28;20839;-50
2021/12/12 06:25:57;;;;;;;14.80;14.40;;;21.20;57.30;;;;;;5052257;28;20448;-52
2021/12/12 06:28:29;;;;;;;14.30;13.90;;;21.20;57.20;;;;;;5052000;28;20467;-51
2021/12/12 06:30:56;;;;;;;15.20;14.70;;;21.30;56.90;;;;;;5051946;28;20452;-52
2021/12/12 06:33:23;;;;;;;14.67;14.20;;;21.20;56.70;;;;;;5050839;28;20464;-51
2021/12/12 06:35:50;;;;;;;14.17;13.77;;;21.30;56.80;;;;;;5051394;28;20444;-52
2021/12/12 06:38:18;;;;;;;15.50;14.90;;;21.30;56.50;;;;;;5051990;28;20455;-49
2021/12/12 06:40:45;;;;;;;15.23;14.73;;;21.20;56.20;;;;;;5051779;28;20456;-56
2021/12/12 06:43:14;;;;;;;14.97;14.47;;;21.20;56.30;;;;;;5051243;28;20483;-57
2021/12/12 06:45:43;;;;;;;15.60;15.10;;;21.20;56.60;;;;;;5051543;28;20480;-53
2021/12/12 06:48:12;;;;;;;14.80;14.30;;;21.30;56.70;;;;;;5051549;28;20458;-53
2021/12/12 06:50:43;;;;;;;15.00;14.50;;;21.30;56.70;;;;;;5051552;28;20941;-54
2021/12/12 06:53:12;;;;;;;15.00;14.50;;;21.40;56.70;;;;;;5052142;28;20531;-54
2021/12/12 06:55:44;;;;;;;14.50;14.10;;;21.30;56.80;;;;;;5051541;28;20973;-52
2021/12/12 06:58:11;;;;;;;14.77;14.37;;;21.30;57.00;;;;;;5051974;28;20428;-53
2021/12/12 07:00:39;;;;;;;14.83;14.23;;;21.30;57.70;;;;;;5051673;28;20527;-49
2021/12/12 07:03:08;;;;;;;15.33;14.83;;;21.30;57.30;;;;;;5051019;28;20495;-47
2021/12/12 07:05:35;;;;;;;15.30;14.80;;;21.30;57.50;;;;;;5050774;28;20468;-47
2021/12/12 07:08:03;;;;;;;15.17;14.67;;;21.40;57.50;;;;;;5051209;28;20452;-48
2021/12/12 07:10:31;;;;;;;15.60;15.10;;;21.30;57.40;;;;;;5051168;28;20454;-52
2021/12/12 07:13:00;;;;;;;15.87;15.37;;;21.30;57.50;;;;;;5050919;28;20447;-47
2021/12/12 07:15:29;;;;;;;14.80;14.30;;;21.30;57.80;;;;;;5050964;28;20843;-49
2021/12/12 07:17:57;;;;;;;14.73;14.17;;;21.30;58.00;;;;;;5050951;28;20950;-48
2021/12/12 07:20:26;;;;;;;15.60;15.03;;;21.20;58.10;;;;;;5051113;28;20447;-49
2021/12/12 07:22:54;;;;;;;15.53;15.00;;;21.10;58.00;;;;;;5050637;28;20472;-48
2021/12/12 07:25:21;;;;;;;14.50;14.10;;;21.10;58.10;;;;;;5050702;28;20476;-48
2021/12/12 07:27:51;;;;;;;15.27;14.87;;;21.00;58.10;;;;;;5050901;28;20444;-53
2021/12/12 07:30:18;;;;;;;15.03;14.50;;;21.00;58.30;;;;;;5050879;28;20448;-47
2021/12/12 07:32:46;;;;;;;10.50;10.10;;;20.90;58.60;;;;;;5050534;28;20444;-47
2021/12/12 07:35:16;;;;;;;10.20;9.80;;;20.80;58.70;;;;;;5050197;28;20495;-47
2021/12/12 07:37:45;;;;;;;10.37;10.07;;;20.90;59.50;;;;;;5050910;28;20440;-50
2021/12/12 07:40:13;;;;;;;10.70;10.37;;;20.80;59.60;;;;;;5050223;28;20579;-47
2021/12/12 07:42:41;;;;;;;10.40;10.10;;;20.70;60.00;;;;;;5050413;28;20452;-49
2021/12/12 07:45:09;;;;;;;10.13;9.73;;;20.60;60.70;;;;;;5051641;28;20482;-47
2021/12/12 07:47:37;;;;;;;10.10;9.90;;;20.60;61.40;;;;;;5054178;28;20970;-47
2021/12/12 07:50:07;;;;;;;9.80;9.40;;;20.50;62.20;;;;;;5054429;28;20455;-47
2021/12/12 07:52:34;;;;;;;9.30;9.10;;;20.40;62.70;;;;;;5054172;28;20825;-47
2021/12/12 07:55:04;;;;;;;8.90;8.70;;;20.40;63.10;;;;;;5054533;28;20821;-47
2021/12/12 07:57:31;;;;;;;8.83;8.57;;;20.40;64.00;;;;;;5054019;28;20463;-48
2021/12/12 07:59:59;;;;;;;8.73;8.53;;;20.90;64.60;;;;;;5034295;28;20455;-47
2021/12/12 08:02:28;;;;;;;9.80;9.30;;;21.30;62.80;;;;;;5034128;28;20539;-47
2021/12/12 08:04:56;;;;;;;8.57;8.38;;;21.70;61.50;;;;;;5033696;28;20453;-47
2021/12/12 08:07:25;;;;;;;9.23;8.93;;;22.20;60.50;;;;;;5034164;28;20653;-47
2021/12/12 08:09:52;;;;;;;9.90;9.70;;;22.80;59.40;;;;;;5046873;28;20450;-48
2021/12/12 08:12:23;;;;;;;9.25;9.05;;;23.20;57.70;;;;;;5053411;28;20444;-47
2021/12/12 08:14:50;;;;;;;9.60;9.20;;;23.50;56.80;;;;;;5053842;28;20218;-48
2021/12/12 08:17:20;;;;;;;9.60;9.30;;;23.60;56.20;;;;;;5053961;28;20447;-47
2021/12/12 08:19:48;;;;;;;10.03;9.73;;;23.50;55.80;;;;;;5053974;28;20452;-48
2021/12/12 08:22:15;;;;;;;9.77;9.47;;;23.40;55.60;;;;;;5053532;28;20455;-50
2021/12/12 08:24:42;;;;;;;10.77;10.40;;;23.50;55.50;;;;;;5053118;28;21015;-52
2021/12/12 08:27:11;;;;;;;9.37;9.17;;;23.50;55.20;;;;;;5053830;28;20571;-48
2021/12/12 08:29:39;;;;;;;9.47;9.20;;;23.80;55.30;;;;;;5053881;28;20451;-46
2021/12/12 08:32:10;;;;;;;9.30;9.00;;;24.30;54.30;;;;;;5053590;28;20482;-47
2021/12/12 08:34:37;;;;;;;9.30;8.90;;;24.50;53.50;;;;;;5034026;28;20453;-46
2021/12/12 08:37:06;;;;;;;9.37;9.07;;;24.60;53.00;;;;;;5033771;28;20472;-52
2021/12/12 08:39:33;;;;;;;8.83;8.63;;;24.60;52.60;;;;;;5033782;28;20845;-47
2021/12/12 08:42:04;;;;;;;8.80;8.50;;;24.60;52.30;;;;;;5033436;28;20476;-49
2021/12/12 08:44:33;;;;;;;8.87;8.67;;;24.60;52.20;;;;;;5037201;28;20507;-47
2021/12/12 08:47:05;;;;;;;8.73;8.30;;;24.50;51.90;;;;;;5053509;28;20456;-47
2021/12/12 08:49:33;;;;;;;9.83;9.53;;;24.60;52.10;;;;;;5053566;28;20444;-46
2021/12/12 08:52:05;;;;;;;9.60;9.20;;;24.90;51.80;;;;;;5052754;28;20448;-46
2021/12/12 08:54:33;;;;;;;9.03;8.83;;;25.40;51.10;;;;;;5053233;28;20456;-47
2021/12/12 08:57:09;;;;;;;9.00;8.70;;;25.50;50.30;;;;;;5052595;28;20475;-47
2021/12/12 08:59:39;;;;;;;8.20;8.00;;;25.40;50.10;;;;;;5053279;28;20810;-47
2021/12/12 09:02:11;;;;;;;9.63;9.33;;;25.40;50.10;;;;;;5052803;28;20486;-46
2021/12/12 09:04:41;;;;;;;9.10;8.90;;;25.20;50.20;;;;;;5052553;28;20487;-47
2021/12/12 09:07:13;;;;;;;9.17;8.87;;;25.20;50.30;;;;;;5053175;28;20444;-47
2021/12/12 09:09:43;;;;;;;8.57;8.37;;;25.30;50.00;;;;;;5053172;28;20459;-47
2021/12/12 09:12:16;;;;;;;10.40;10.00;;;25.50;49.80;;;;;;5052928;28;20497;-57
2021/12/12 09:14:47;;;;;;;9.70;9.40;;;25.60;49.30;;;;;;5052607;28;20471;-45
2021/12/12 09:17:19;;;;;;;10.40;10.00;;;25.70;48.60;;;;;;5052772;28;20453;-47
2021/12/12 09:19:51;;;;;;;9.63;9.33;;;25.60;48.80;;;;;;5033023;28;20456;-47
2021/12/12 09:22:23;;;;;;;7.18;6.78;;;25.50;49.10;;;;;;5031702;28;20441;-44
2021/12/12 09:24:57;;;;;;;8.17;7.90;;;25.60;49.30;;;;;;5032889;28;20230;-50
2021/12/12 09:27:27;;;;;;;8.20;7.87;;;25.50;49.10;;;;;;5035365;28;20453;-53
2021/12/12 09:29:59;;;;;;;9.20;8.90;;;25.60;48.80;;;;;;5052832;28;20466;-48
2021/12/12 09:32:31;;;;;;;8.90;8.60;;;25.80;49.00;;;;;;5052476;28;20528;-52
2021/12/12 09:35:04;;;;;;;19.03;16.67;;;26.10;48.40;;;;;;5052695;28;21011;-49
2021/12/12 09:37:36;;;;;;;12.93;12.03;;;26.20;48.00;;;;;;5052655;28;20431;-46
2021/12/12 09:40:13;;;;;;;11.40;10.57;;;26.10;47.80;;;;;;5051226;28;20439;-45
2021/12/12 09:42:58;;;;;;;12.70;12.00;;;26.00;47.80;;;;;;5051865;28;20978;-50
2021/12/12 09:45:39;;;;;;;12.32;11.52;;;26.10;47.90;;;;;;5051805;28;20467;-48
2021/12/12 09:51:30;;;;;;;10.93;10.40;;;26.80;46.70;;;;;;5052351;28;20452;-47
2021/12/12 09:54:14;;;;;;;11.73;11.20;;;26.80;46.40;;;;;;5052183;28;20471;-46
2021/12/12 09:56:48;;;;;;;11.73;11.00;;;26.80;46.30;;;;;;5052207;28;20456;-47
2021/12/12 09:59:39;;;;;;;11.27;10.67;;;26.60;46.40;;;;;;5052227;28;20513;-46
2021/12/12 10:02:13;;;;;;;11.93;11.37;;;26.60;46.40;;;;;;5052005;28;20440;-45
2021/12/12 10:04:52;;;;;;;11.90;11.30;;;26.40;46.50;;;;;;5051752;28;20480;-44
2021/12/12 10:07:34;;;;;;;10.67;10.30;;;26.30;46.80;;;;;;5051980;28;20868;-49
2021/12/12 10:10:06;;;;;;;11.63;11.03;;;26.10;46.90;;;;;;5052017;28;20448;-46
2021/12/12 10:12:39;;;;;;;11.27;10.57;;;26.00;47.00;;;;;;5051757;28;20476;-53
2021/12/12 10:15:11;;;;;;;11.10;10.50;;;26.00;47.20;;;;;;5051590;28;20518;-46
2021/12/12 10:17:43;;;;;;;10.37;9.93;;;26.00;47.20;;;;;;5051441;28;20455;-46
2021/12/12 10:20:19;;;;;;;9.73;9.40;;;25.90;47.20;;;;;;5051710;28;20810;-46
2021/12/12 10:23:01;;;;;;;10.00;9.60;;;25.70;47.40;;;;;;5051501;28;20443;-46
2021/12/12 10:25:32;;;;;;;9.00;8.60;;;25.60;47.70;;;;;;5051267;28;20487;-46
2021/12/12 10:28:02;;;;;;;10.10;9.70;;;25.50;47.80;;;;;;5051433;28;20454;-47
2021/12/12 10:30:34;;;;;;;9.53;9.13;;;25.30;48.00;;;;;;5051782;28;20451;-51
2021/12/12 10:33:08;;;;;;;10.87;10.37;;;25.20;48.20;;;;;;5051570;28;20456;-45
2021/12/12 10:35:42;;;;;;;8.00;7.60;;;25.20;48.50;;;;;;5050183;28;20451;-46
2021/12/12 10:38:14;;;;;;;8.90;8.60;;;25.20;48.30;;;;;;5051505;28;20787;-45
2021/12/12 10:40:48;;;;;;;9.60;9.20;;;25.00;48.50;;;;;;5051513;28;20440;-46
2021/12/12 10:43:22;;;;;;;10.20;9.80;;;25.00;48.50;;;;;;5051278;28;20958;-51
2021/12/12 10:45:55;;;;;;;11.20;10.60;;;24.90;48.60;;;;;;5051472;28;20846;-50
2021/12/12 10:48:31;;;;;;;10.50;10.00;;;24.80;49.10;;;;;;5051149;28;20451;-54
2021/12/12 10:51:04;;;;;;;10.20;9.90;;;24.80;49.10;;;;;;5051662;28;20436;-52
2021/12/12 10:53:41;;;;;;;10.83;10.43;;;24.70;49.40;;;;;;5050881;28;20444;-47
2021/12/12 10:56:18;;;;;;;10.87;10.47;;;24.60;49.40;;;;;;5051220;28;20991;-48
2021/12/12 10:58:47;;;;;;;10.63;10.20;;;24.50;49.30;;;;;;5051310;28;20443;-46
2021/12/12 11:01:19;;;;;;;10.20;9.63;;;24.40;49.40;;;;;;5051363;28;20448;-49
2021/12/12 11:03:51;;;;;;;9.60;9.00;;;24.30;49.80;;;;;;5050999;28;20946;-50
2021/12/12 11:06:26;;;;;;;9.83;9.53;;;24.20;50.60;;;;;;5051343;28;20858;-46
2021/12/12 11:08:59;;;;;;;10.73;10.33;;;24.10;50.20;;;;;;5051256;28;20467;-46
2021/12/12 11:11:29;;;;;;;10.27;9.67;;;24.10;50.40;;;;;;5051017;28;20483;-46
2021/12/12 11:14:07;;;;;;;10.90;10.50;;;24.00;50.50;;;;;;5051184;28;20472;-49
2021/12/12 11:16:39;;;;;;;9.93;9.63;;;23.80;50.50;;;;;;5051202;28;20524;-46
2021/12/12 11:19:13;;;;;;;10.37;9.97;;;23.70;50.60;;;;;;5051042;28;20840;-48
2021/12/12 11:21:46;;;;;;;10.77;10.47;;;23.80;50.70;;;;;;5054924;28;20451;-47
2021/12/12 11:24:20;;;;;;;9.60;9.20;;;23.80;50.60;;;;;;5054775;28;20495;-51
2021/12/12 11:26:54;;;;;;;9.60;9.30;;;23.60;50.90;;;;;;5055141;28;20436;-46
2021/12/12 11:29:27;;;;;;;11.27;10.87;;;23.50;51.10;;;;;;5054953;28;20862;-48
2021/12/12 11:31:57;;;;;;;10.70;10.30;;;23.40;51.20;;;;;;5054848;28;20444;-49
2021/12/12 11:34:25;;;;;;;10.40;10.00;;;23.40;51.20;;;;;;5054691;28;20471;-45
2021/12/12 11:37:06;;;;;;;10.07;9.77;;;23.40;51.30;;;;;;5054706;28;20448;-45
2021/12/12 11:39:39;;;;;;;11.10;10.60;;;23.40;51.40;;;;;;5054620;28;20505;-47
2021/12/12 11:42:15;;;;;;;9.50;9.20;;;23.40;51.50;;;;;;5054611;28;20444;-46
2021/12/12 11:44:49;;;;;;;10.97;10.57;;;23.20;51.60;;;;;;5078454;22;20488;-54
2021/12/12 11:47:27;;;;;;;10.33;10.03;;;23.20;51.90;;;;;;5054650;28;20432;-57
2021/12/12 11:49:58;;;;;;;9.80;9.50;;;23.10;51.90;;;;;;5054854;28;20451;-56
2021/12/12 11:52:39;;;;;;;10.20;9.70;;;23.00;52.00;;;;;;5054502;28;20439;-54
2021/12/12 11:55:10;;;;;;;10.60;10.30;;;23.00;52.20;;;;;;5054855;28;20466;-56
2021/12/12 11:57:47;;;;;;;10.70;10.40;;;22.90;52.30;;;;;;5055484;28;20447;-55
2021/12/12 12:00:19;;;;;;;10.43;10.13;;;22.80;52.70;;;;;;5054719;28;20436;-54
2021/12/12 12:02:57;;;;;;;10.07;9.77;;;22.60;53.00;;;;;;5034614;28;20206;-54
2021/12/12 12:05:35;;;;;;;10.17;9.87;;;22.50;53.70;;;;;;5034665;28;20480;-52
2021/12/12 12:08:14;;;;;;;10.57;10.27;;;22.40;54.00;;;;;;5034601;28;20889;-50
2021/12/12 12:10:57;;;;;;;10.90;10.60;;;22.30;54.30;;;;;;5034751;28;20448;-55
2021/12/12 12:13:54;;;;;;;10.23;9.93;;;22.30;54.30;;;;;;5040959;28;20440;-53
2021/12/12 12:16:47;;;;;;;10.47;10.17;;;22.20;54.70;;;;;;5009725;28;20487;-50
2021/12/12 12:19:22;;;;;;;11.30;11.00;;;22.10;55.00;;;;;;5054283;28;20444;-53
2021/12/12 12:22:05;;;;;;;9.73;9.43;;;22.00;55.00;;;;;;5054410;28;20454;-54
2021/12/12 12:24:41;;;;;;;10.10;9.80;;;22.00;55.50;;;;;;5054013;28;20484;-53
2021/12/12 12:27:11;;;;;;;9.60;9.30;;;22.00;55.60;;;;;;5034380;28;20503;-50
2021/12/12 12:30:08;;;;;;;10.13;9.80;;;21.90;55.70;;;;;;5048032;28;20471;-51
2021/12/12 12:33:11;;;;;;;10.23;9.93;;;21.80;55.80;;;;;;5053048;28;20848;-54
2021/12/12 12:36:16;;;;;;;9.33;9.13;;;21.80;56.10;;;;;;5053976;28;20498;-51
2021/12/12 12:39:20;;;;;;;9.30;9.10;;;21.70;56.40;;;;;;5054074;28;20972;-51
2021/12/12 12:42:32;;;;;;;9.20;8.90;;;21.60;56.40;;;;;;5053919;28;20444;-54
2021/12/12 12:45:51;;;;;;;8.60;8.30;;;21.60;56.80;;;;;;5052084;28;20530;-52
2021/12/12 12:48:55;;;;;;;10.23;9.93;;;21.60;57.00;;;;;;5053731;28;20444;-53
2021/12/12 12:51:48;;;;;;;9.70;9.40;;;21.60;57.10;;;;;;5033777;28;20448;-51
2021/12/12 12:54:28;;;;;;;10.90;10.50;;;21.50;57.40;;;;;;5033859;28;20468;-50
2021/12/12 12:57:20;;;;;;;10.67;10.33;;;21.40;57.60;;;;;;5049229;28;20824;-54
2021/12/12 13:00:06;;;;;;;8.60;8.30;;;21.30;57.70;;;;;;5058345;28;20523;-50
2021/12/12 13:02:41;;;;;;;8.83;8.53;;;21.30;58.10;;;;;;5053488;28;20448;-58
2021/12/12 13:05:54;;;;;;;10.27;9.97;;;21.20;58.20;;;;;;5053475;28;20491;-52
2021/12/12 13:09:03;;;;;;;9.60;9.40;;;21.30;58.80;;;;;;5053395;28;20851;-52
2021/12/12 13:11:36;;;;;;;10.10;9.80;;;22.30;57.60;;;;;;5052920;28;20456;-51
2021/12/12 13:14:18;;;;;;;10.80;10.50;;;22.80;56.10;;;;;;5049695;28;20469;-56